sensor_id;sensor_type;location;lat;lon;timestamp;P1;durP1;ratioP1;P2;durP2;ratioP2
20008;SDS011;10165;42.662;23.260;2023-07-28T00:00:39;5.70;;;1.87;;
20008;SDS011;10165;42.662;23.260;2023-07-28T00:03:06;3.33;;;1.73;;
20008;SDS011;10165;42.662;23.260;2023-07-28T00:05:33;3.60;;;1.80;;
20008;SDS011;10165;42.662;23.260;2023-07-28T00:07:59;1.63;;;1.53;;
20008;SDS011;10165;42.662;23.260;2023-07-28T00:10:27;2.47;;;1.60;;
20008;SDS011;10165;42.662;23.260;2023-07-28T00:12:53;1.97;;;1.87;;
20008;SDS011;10165;42.662;23.260;2023-07-28T00:15:20;1.70;;;1.60;;
20008;SDS011;10165;42.662;23.260;2023-07-28T00:17:47;4.33;;;1.87;;
20008;SDS011;10165;42.662;23.260;2023-07-28T00:20:13;3.00;;;1.97;;
20008;SDS011;10165;42.662;23.260;2023-07-28T00:22:40;2.37;;;1.70;;
20008;SDS011;10165;42.662;23.260;2023-07-28T00:25:07;3.27;;;1.80;;
20008;SDS011;10165;42.662;23.260;2023-07-28T00:27:34;2.47;;;1.60;;
20008;SDS011;10165;42.662;23.260;2023-07-28T00:30:01;2.37;;;1.80;;
20008;SDS011;10165;42.662;23.260;2023-07-28T00:32:27;2.80;;;1.53;;
20008;SDS011;10165;42.662;23.260;2023-07-28T00:34:59;2.10;;;1.83;;
20008;SDS011;10165;42.662;23.260;2023-07-28T00:37:27;1.73;;;1.63;;
20008;SDS011;10165;42.662;23.260;2023-07-28T00:39:53;3.17;;;1.57;;
20008;SDS011;10165;42.662;23.260;2023-07-28T00:42:20;4.80;;;1.80;;
20008;SDS011;10165;42.662;23.260;2023-07-28T00:44:47;1.90;;;1.60;;
20008;SDS011;10165;42.662;23.260;2023-07-28T00:47:14;2.53;;;1.70;;
20008;SDS011;10165;42.662;23.260;2023-07-28T00:49:41;2.90;;;1.80;;
20008;SDS011;10165;42.662;23.260;2023-07-28T00:52:08;1.83;;;1.67;;
20008;SDS011;10165;42.662;23.260;2023-07-28T00:54:35;1.87;;;1.73;;
20008;SDS011;10165;42.662;23.260;2023-07-28T00:57:02;1.80;;;1.70;;
20008;SDS011;10165;42.662;23.260;2023-07-28T00:59:31;1.60;;;1.50;;
20008;SDS011;10165;42.662;23.260;2023-07-28T01:01:57;1.70;;;1.60;;
20008;SDS011;10165;42.662;23.260;2023-07-28T01:04:25;2.17;;;1.90;;
20008;SDS011;10165;42.662;23.260;2023-07-28T01:07:04;1.80;;;1.70;;
20008;SDS011;10165;42.662;23.260;2023-07-28T01:09:39;2.37;;;1.80;;
20008;SDS011;10165;42.662;23.260;2023-07-28T01:12:13;3.17;;;1.77;;
20008;SDS011;10165;42.662;23.260;2023-07-28T01:14:39;1.90;;;1.80;;
20008;SDS011;10165;42.662;23.260;2023-07-28T01:17:06;1.80;;;1.70;;
20008;SDS011;10165;42.662;23.260;2023-07-28T01:19:33;2.07;;;1.87;;
20008;SDS011;10165;42.662;23.260;2023-07-28T01:22:07;1.87;;;1.73;;
20008;SDS011;10165;42.662;23.260;2023-07-28T01:27:46;4.17;;;2.20;;
20008;SDS011;10165;42.662;23.260;2023-07-28T01:30:15;2.03;;;1.83;;
20008;SDS011;10165;42.662;23.260;2023-07-28T01:32:42;2.47;;;2.17;;
20008;SDS011;10165;42.662;23.260;2023-07-28T01:35:09;2.57;;;2.37;;
20008;SDS011;10165;42.662;23.260;2023-07-28T01:37:36;4.37;;;2.57;;
20008;SDS011;10165;42.662;23.260;2023-07-28T01:40:02;3.30;;;2.10;;
20008;SDS011;10165;42.662;23.260;2023-07-28T01:42:29;3.50;;;2.73;;
20008;SDS011;10165;42.662;23.260;2023-07-28T01:44:56;3.40;;;2.50;;
20008;SDS011;10165;42.662;23.260;2023-07-28T01:47:23;3.60;;;2.60;;
20008;SDS011;10165;42.662;23.260;2023-07-28T01:49:51;2.40;;;2.20;;
20008;SDS011;10165;42.662;23.260;2023-07-28T01:52:18;4.13;;;3.10;;
20008;SDS011;10165;42.662;23.260;2023-07-28T01:54:45;3.00;;;2.80;;
20008;SDS011;10165;42.662;23.260;2023-07-28T01:57:11;3.57;;;3.00;;
20008;SDS011;10165;42.662;23.260;2023-07-28T01:59:38;3.53;;;3.17;;
20008;SDS011;10165;42.662;23.260;2023-07-28T02:02:05;3.60;;;2.77;;
20008;SDS011;10165;42.662;23.260;2023-07-28T02:04:32;3.87;;;3.07;;
20008;SDS011;10165;42.662;23.260;2023-07-28T02:06:59;3.30;;;3.00;;
20008;SDS011;10165;42.662;23.260;2023-07-28T02:09:26;3.27;;;2.80;;
20008;SDS011;10165;42.662;23.260;2023-07-28T02:11:53;6.43;;;3.00;;
20008;SDS011;10165;42.662;23.260;2023-07-28T02:14:19;3.23;;;2.93;;
20008;SDS011;10165;42.662;23.260;2023-07-28T02:16:46;3.47;;;3.17;;
20008;SDS011;10165;42.662;23.260;2023-07-28T02:19:13;2.90;;;2.60;;
20008;SDS011;10165;42.662;23.260;2023-07-28T02:21:40;3.50;;;3.03;;
20008;SDS011;10165;42.662;23.260;2023-07-28T02:24:06;3.33;;;3.03;;
20008;SDS011;10165;42.662;23.260;2023-07-28T02:26:33;5.37;;;3.13;;
20008;SDS011;10165;42.662;23.260;2023-07-28T02:29:00;4.27;;;3.10;;
20008;SDS011;10165;42.662;23.260;2023-07-28T02:31:27;5.03;;;3.03;;
20008;SDS011;10165;42.662;23.260;2023-07-28T02:33:58;4.63;;;3.17;;
20008;SDS011;10165;42.662;23.260;2023-07-28T02:36:25;3.07;;;2.80;;
20008;SDS011;10165;42.662;23.260;2023-07-28T02:38:52;5.93;;;3.23;;
20008;SDS011;10165;42.662;23.260;2023-07-28T02:41:18;3.43;;;2.70;;
20008;SDS011;10165;42.662;23.260;2023-07-28T02:43:45;4.30;;;3.43;;
20008;SDS011;10165;42.662;23.260;2023-07-28T02:46:12;4.00;;;2.97;;
20008;SDS011;10165;42.662;23.260;2023-07-28T02:48:43;4.37;;;3.00;;
20008;SDS011;10165;42.662;23.260;2023-07-28T02:51:10;4.33;;;3.57;;
20008;SDS011;10165;42.662;23.260;2023-07-28T02:53:37;4.30;;;2.87;;
20008;SDS011;10165;42.662;23.260;2023-07-28T02:56:03;3.20;;;2.83;;
20008;SDS011;10165;42.662;23.260;2023-07-28T02:58:30;4.57;;;2.97;;
20008;SDS011;10165;42.662;23.260;2023-07-28T03:00:57;2.80;;;2.50;;
20008;SDS011;10165;42.662;23.260;2023-07-28T03:03:24;3.53;;;2.50;;
20008;SDS011;10165;42.662;23.260;2023-07-28T03:05:54;2.70;;;2.50;;
20008;SDS011;10165;42.662;23.260;2023-07-28T03:08:21;4.80;;;2.67;;
20008;SDS011;10165;42.662;23.260;2023-07-28T03:10:47;3.63;;;2.97;;
20008;SDS011;10165;42.662;23.260;2023-07-28T03:13:14;4.17;;;2.50;;
20008;SDS011;10165;42.662;23.260;2023-07-28T03:15:41;6.77;;;2.97;;
20008;SDS011;10165;42.662;23.260;2023-07-28T03:18:07;3.20;;;2.90;;
20008;SDS011;10165;42.662;23.260;2023-07-28T03:20:34;2.93;;;2.63;;
20008;SDS011;10165;42.662;23.260;2023-07-28T03:23:01;2.50;;;2.30;;
20008;SDS011;10165;42.662;23.260;2023-07-28T03:25:27;2.90;;;2.63;;
20008;SDS011;10165;42.662;23.260;2023-07-28T03:27:54;4.03;;;2.60;;
20008;SDS011;10165;42.662;23.260;2023-07-28T03:30:21;4.13;;;2.70;;
20008;SDS011;10165;42.662;23.260;2023-07-28T03:32:48;3.00;;;2.70;;
20008;SDS011;10165;42.662;23.260;2023-07-28T03:35:14;7.43;;;3.03;;
20008;SDS011;10165;42.662;23.260;2023-07-28T03:37:41;2.90;;;2.63;;
20008;SDS011;10165;42.662;23.260;2023-07-28T03:40:08;3.40;;;2.47;;
20008;SDS011;10165;42.662;23.260;2023-07-28T03:42:35;2.77;;;2.57;;
20008;SDS011;10165;42.662;23.260;2023-07-28T03:45:02;3.30;;;2.60;;
20008;SDS011;10165;42.662;23.260;2023-07-28T03:47:29;3.33;;;2.90;;
20008;SDS011;10165;42.662;23.260;2023-07-28T03:49:56;3.67;;;2.20;;
20008;SDS011;10165;42.662;23.260;2023-07-28T03:52:22;2.87;;;2.60;;
20008;SDS011;10165;42.662;23.260;2023-07-28T03:54:49;3.40;;;2.67;;
20008;SDS011;10165;42.662;23.260;2023-07-28T03:57:16;3.03;;;2.73;;
20008;SDS011;10165;42.662;23.260;2023-07-28T03:59:43;3.57;;;3.17;;
20008;SDS011;10165;42.662;23.260;2023-07-28T04:02:10;3.97;;;2.53;;
20008;SDS011;10165;42.662;23.260;2023-07-28T04:04:37;3.97;;;3.00;;
20008;SDS011;10165;42.662;23.260;2023-07-28T04:07:03;3.53;;;3.23;;
20008;SDS011;10165;42.662;23.260;2023-07-28T04:09:30;3.80;;;3.10;;
20008;SDS011;10165;42.662;23.260;2023-07-28T04:11:57;3.90;;;2.60;;
20008;SDS011;10165;42.662;23.260;2023-07-28T04:14:24;2.90;;;2.70;;
20008;SDS011;10165;42.662;23.260;2023-07-28T04:16:51;4.23;;;2.80;;
20008;SDS011;10165;42.662;23.260;2023-07-28T04:19:17;3.17;;;2.97;;
20008;SDS011;10165;42.662;23.260;2023-07-28T04:21:44;4.47;;;3.10;;
20008;SDS011;10165;42.662;23.260;2023-07-28T04:24:11;6.67;;;3.00;;
20008;SDS011;10165;42.662;23.260;2023-07-28T04:26:38;5.00;;;3.63;;
20008;SDS011;10165;42.662;23.260;2023-07-28T04:29:05;4.30;;;3.90;;
20008;SDS011;10165;42.662;23.260;2023-07-28T04:31:31;6.43;;;3.60;;
20008;SDS011;10165;42.662;23.260;2023-07-28T04:33:58;4.73;;;3.43;;
20008;SDS011;10165;42.662;23.260;2023-07-28T04:36:26;4.10;;;3.30;;
20008;SDS011;10165;42.662;23.260;2023-07-28T04:38:52;5.20;;;3.60;;
20008;SDS011;10165;42.662;23.260;2023-07-28T04:41:19;5.53;;;3.77;;
20008;SDS011;10165;42.662;23.260;2023-07-28T04:43:46;7.40;;;3.40;;
20008;SDS011;10165;42.662;23.260;2023-07-28T04:46:12;5.07;;;4.07;;
20008;SDS011;10165;42.662;23.260;2023-07-28T04:48:39;7.63;;;3.87;;
20008;SDS011;10165;42.662;23.260;2023-07-28T04:51:06;4.90;;;4.10;;
20008;SDS011;10165;42.662;23.260;2023-07-28T04:53:33;10.57;;;3.73;;
20008;SDS011;10165;42.662;23.260;2023-07-28T04:55:59;5.33;;;4.30;;
20008;SDS011;10165;42.662;23.260;2023-07-28T04:58:27;6.47;;;3.87;;
20008;SDS011;10165;42.662;23.260;2023-07-28T05:00:53;4.20;;;3.80;;
20008;SDS011;10165;42.662;23.260;2023-07-28T05:03:20;4.40;;;4.00;;
20008;SDS011;10165;42.662;23.260;2023-07-28T05:05:47;4.73;;;3.37;;
20008;SDS011;10165;42.662;23.260;2023-07-28T05:08:14;6.03;;;3.87;;
20008;SDS011;10165;42.662;23.260;2023-07-28T05:10:41;5.97;;;3.90;;
20008;SDS011;10165;42.662;23.260;2023-07-28T05:13:08;4.60;;;4.10;;
20008;SDS011;10165;42.662;23.260;2023-07-28T05:15:35;5.97;;;3.90;;
20008;SDS011;10165;42.662;23.260;2023-07-28T05:18:02;4.90;;;3.37;;
20008;SDS011;10165;42.662;23.260;2023-07-28T05:20:28;5.63;;;3.10;;
20008;SDS011;10165;42.662;23.260;2023-07-28T05:22:55;7.70;;;3.40;;
20008;SDS011;10165;42.662;23.260;2023-07-28T05:25:22;4.77;;;3.90;;
20008;SDS011;10165;42.662;23.260;2023-07-28T05:27:48;4.93;;;3.60;;
20008;SDS011;10165;42.662;23.260;2023-07-28T05:30:15;5.53;;;3.57;;
20008;SDS011;10165;42.662;23.260;2023-07-28T05:32:42;7.47;;;3.50;;
20008;SDS011;10165;42.662;23.260;2023-07-28T05:35:09;3.77;;;3.33;;
20008;SDS011;10165;42.662;23.260;2023-07-28T05:37:35;3.50;;;3.20;;
20008;SDS011;10165;42.662;23.260;2023-07-28T05:40:05;4.47;;;3.87;;
20008;SDS011;10165;42.662;23.260;2023-07-28T05:42:32;5.07;;;3.40;;
20008;SDS011;10165;42.662;23.260;2023-07-28T05:44:59;4.50;;;3.50;;
20008;SDS011;10165;42.662;23.260;2023-07-28T05:47:26;4.30;;;3.50;;
20008;SDS011;10165;42.662;23.260;2023-07-28T05:49:52;5.27;;;3.73;;
20008;SDS011;10165;42.662;23.260;2023-07-28T05:52:20;6.80;;;3.23;;
20008;SDS011;10165;42.662;23.260;2023-07-28T05:54:47;8.87;;;3.77;;
20008;SDS011;10165;42.662;23.260;2023-07-28T05:57:13;6.27;;;3.30;;
20008;SDS011;10165;42.662;23.260;2023-07-28T05:59:40;4.03;;;3.10;;
20008;SDS011;10165;42.662;23.260;2023-07-28T06:02:07;6.50;;;3.97;;
20008;SDS011;10165;42.662;23.260;2023-07-28T06:04:34;6.07;;;3.53;;
20008;SDS011;10165;42.662;23.260;2023-07-28T06:07:01;4.73;;;3.23;;
20008;SDS011;10165;42.662;23.260;2023-07-28T06:09:28;3.73;;;3.00;;
20008;SDS011;10165;42.662;23.260;2023-07-28T06:11:55;7.30;;;3.50;;
20008;SDS011;10165;42.662;23.260;2023-07-28T06:14:23;3.93;;;3.00;;
20008;SDS011;10165;42.662;23.260;2023-07-28T06:16:50;4.73;;;3.27;;
20008;SDS011;10165;42.662;23.260;2023-07-28T06:19:16;7.87;;;3.20;;
20008;SDS011;10165;42.662;23.260;2023-07-28T06:21:50;6.97;;;3.40;;
20008;SDS011;10165;42.662;23.260;2023-07-28T06:24:17;4.37;;;3.97;;
20008;SDS011;10165;42.662;23.260;2023-07-28T06:26:44;4.57;;;3.50;;
20008;SDS011;10165;42.662;23.260;2023-07-28T06:29:11;6.93;;;3.03;;
20008;SDS011;10165;42.662;23.260;2023-07-28T06:31:38;6.63;;;3.73;;
20008;SDS011;10165;42.662;23.260;2023-07-28T06:34:05;5.50;;;3.60;;
20008;SDS011;10165;42.662;23.260;2023-07-28T06:36:31;6.33;;;3.83;;
20008;SDS011;10165;42.662;23.260;2023-07-28T06:38:58;8.77;;;3.40;;
20008;SDS011;10165;42.662;23.260;2023-07-28T06:41:25;9.33;;;3.33;;
20008;SDS011;10165;42.662;23.260;2023-07-28T06:43:52;9.63;;;3.40;;
20008;SDS011;10165;42.662;23.260;2023-07-28T06:46:19;6.10;;;3.30;;
20008;SDS011;10165;42.662;23.260;2023-07-28T06:48:46;5.30;;;2.67;;
20008;SDS011;10165;42.662;23.260;2023-07-28T06:51:13;3.37;;;3.07;;
20008;SDS011;10165;42.662;23.260;2023-07-28T06:53:39;7.07;;;3.47;;
20008;SDS011;10165;42.662;23.260;2023-07-28T06:56:06;4.47;;;3.60;;
20008;SDS011;10165;42.662;23.260;2023-07-28T06:58:33;7.97;;;3.40;;
20008;SDS011;10165;42.662;23.260;2023-07-28T07:00:59;4.00;;;3.60;;
20008;SDS011;10165;42.662;23.260;2023-07-28T07:03:27;4.47;;;3.50;;
20008;SDS011;10165;42.662;23.260;2023-07-28T07:05:54;4.37;;;3.17;;
20008;SDS011;10165;42.662;23.260;2023-07-28T07:08:21;7.00;;;3.23;;
20008;SDS011;10165;42.662;23.260;2023-07-28T07:10:50;6.03;;;3.63;;
20008;SDS011;10165;42.662;23.260;2023-07-28T07:13:17;5.47;;;3.30;;
20008;SDS011;10165;42.662;23.260;2023-07-28T07:15:44;4.80;;;3.20;;
20008;SDS011;10165;42.662;23.260;2023-07-28T07:18:12;3.97;;;3.00;;
20008;SDS011;10165;42.662;23.260;2023-07-28T07:20:39;7.10;;;2.93;;
20008;SDS011;10165;42.662;23.260;2023-07-28T07:23:06;3.67;;;3.17;;
20008;SDS011;10165;42.662;23.260;2023-07-28T07:25:33;4.07;;;3.20;;
20008;SDS011;10165;42.662;23.260;2023-07-28T07:28:00;3.77;;;3.40;;
20008;SDS011;10165;42.662;23.260;2023-07-28T07:30:28;3.77;;;3.33;;
20008;SDS011;10165;42.662;23.260;2023-07-28T07:32:54;4.40;;;3.20;;
20008;SDS011;10165;42.662;23.260;2023-07-28T07:35:21;4.57;;;3.20;;
20008;SDS011;10165;42.662;23.260;2023-07-28T07:37:48;6.43;;;2.93;;
20008;SDS011;10165;42.662;23.260;2023-07-28T07:40:14;6.80;;;3.07;;
20008;SDS011;10165;42.662;23.260;2023-07-28T07:42:50;3.93;;;2.70;;
20008;SDS011;10165;42.662;23.260;2023-07-28T07:45:18;5.10;;;2.70;;
20008;SDS011;10165;42.662;23.260;2023-07-28T07:47:44;3.80;;;2.37;;
20008;SDS011;10165;42.662;23.260;2023-07-28T07:50:11;4.47;;;2.90;;
20008;SDS011;10165;42.662;23.260;2023-07-28T07:52:39;4.00;;;2.80;;
20008;SDS011;10165;42.662;23.260;2023-07-28T07:55:08;10.23;;;4.97;;
20008;SDS011;10165;42.662;23.260;2023-07-28T07:57:38;5.37;;;3.17;;
20008;SDS011;10165;42.662;23.260;2023-07-28T08:00:06;11.93;;;3.80;;
20008;SDS011;10165;42.662;23.260;2023-07-28T08:02:33;6.53;;;3.17;;
20008;SDS011;10165;42.662;23.260;2023-07-28T08:05:00;7.10;;;3.10;;
20008;SDS011;10165;42.662;23.260;2023-07-28T08:07:27;8.20;;;3.00;;
20008;SDS011;10165;42.662;23.260;2023-07-28T08:09:54;4.83;;;3.03;;
20008;SDS011;10165;42.662;23.260;2023-07-28T08:12:20;6.87;;;3.17;;
20008;SDS011;10165;42.662;23.260;2023-07-28T08:14:47;8.10;;;3.20;;
20008;SDS011;10165;42.662;23.260;2023-07-28T08:17:14;3.83;;;2.83;;
20008;SDS011;10165;42.662;23.260;2023-07-28T08:19:41;3.33;;;2.90;;
20008;SDS011;10165;42.662;23.260;2023-07-28T08:22:08;6.67;;;3.10;;
20008;SDS011;10165;42.662;23.260;2023-07-28T08:24:35;6.93;;;3.23;;
20008;SDS011;10165;42.662;23.260;2023-07-28T08:27:02;8.37;;;2.63;;
20008;SDS011;10165;42.662;23.260;2023-07-28T08:29:29;5.23;;;3.27;;
20008;SDS011;10165;42.662;23.260;2023-07-28T08:31:56;4.17;;;2.70;;
20008;SDS011;10165;42.662;23.260;2023-07-28T08:34:23;4.53;;;3.13;;
20008;SDS011;10165;42.662;23.260;2023-07-28T08:36:49;3.57;;;3.10;;
20008;SDS011;10165;42.662;23.260;2023-07-28T08:39:17;11.43;;;3.80;;
20008;SDS011;10165;42.662;23.260;2023-07-28T08:41:44;5.27;;;2.60;;
20008;SDS011;10165;42.662;23.260;2023-07-28T08:44:11;2.93;;;2.70;;
20008;SDS011;10165;42.662;23.260;2023-07-28T08:46:37;3.73;;;2.90;;
20008;SDS011;10165;42.662;23.260;2023-07-28T08:49:04;7.17;;;3.07;;
20008;SDS011;10165;42.662;23.260;2023-07-28T08:51:32;5.73;;;2.60;;
20008;SDS011;10165;42.662;23.260;2023-07-28T08:53:59;4.80;;;2.80;;
20008;SDS011;10165;42.662;23.260;2023-07-28T08:56:26;7.10;;;3.03;;
20008;SDS011;10165;42.662;23.260;2023-07-28T08:58:57;3.87;;;2.60;;
20008;SDS011;10165;42.662;23.260;2023-07-28T09:01:25;4.20;;;3.17;;
20008;SDS011;10165;42.662;23.260;2023-07-28T09:03:52;8.27;;;3.20;;
20008;SDS011;10165;42.662;23.260;2023-07-28T09:06:19;5.87;;;2.90;;
20008;SDS011;10165;42.662;23.260;2023-07-28T09:08:56;4.37;;;2.93;;
20008;SDS011;10165;42.662;23.260;2023-07-28T09:11:24;5.70;;;3.30;;
20008;SDS011;10165;42.662;23.260;2023-07-28T09:13:54;8.50;;;3.03;;
20008;SDS011;10165;42.662;23.260;2023-07-28T09:16:22;3.80;;;3.23;;
20008;SDS011;10165;42.662;23.260;2023-07-28T09:18:51;3.33;;;2.87;;
20008;SDS011;10165;42.662;23.260;2023-07-28T09:21:30;4.23;;;3.07;;
20008;SDS011;10165;42.662;23.260;2023-07-28T09:24:05;3.67;;;2.63;;
20008;SDS011;10165;42.662;23.260;2023-07-28T09:26:36;5.53;;;3.30;;
20008;SDS011;10165;42.662;23.260;2023-07-28T09:31:41;6.50;;;2.57;;
20008;SDS011;10165;42.662;23.260;2023-07-28T09:34:09;4.07;;;2.87;;
20008;SDS011;10165;42.662;23.260;2023-07-28T09:36:36;7.17;;;3.20;;
20008;SDS011;10165;42.662;23.260;2023-07-28T09:39:05;3.70;;;2.70;;
20008;SDS011;10165;42.662;23.260;2023-07-28T09:41:35;5.53;;;3.23;;
20008;SDS011;10165;42.662;23.260;2023-07-28T09:44:04;5.10;;;3.10;;
20008;SDS011;10165;42.662;23.260;2023-07-28T09:46:34;5.03;;;2.50;;
20008;SDS011;10165;42.662;23.260;2023-07-28T09:49:05;2.73;;;2.43;;
20008;SDS011;10165;42.662;23.260;2023-07-28T09:51:36;3.23;;;2.80;;
20008;SDS011;10165;42.662;23.260;2023-07-28T09:54:19;4.73;;;2.97;;
20008;SDS011;10165;42.662;23.260;2023-07-28T09:56:55;5.67;;;3.03;;
20008;SDS011;10165;42.662;23.260;2023-07-28T09:59:28;5.00;;;3.40;;
20008;SDS011;10165;42.662;23.260;2023-07-28T10:01:57;5.33;;;2.27;;
20008;SDS011;10165;42.662;23.260;2023-07-28T10:04:25;5.23;;;2.90;;
20008;SDS011;10165;42.662;23.260;2023-07-28T10:06:52;3.13;;;2.60;;
20008;SDS011;10165;42.662;23.260;2023-07-28T10:09:26;5.80;;;3.63;;
20008;SDS011;10165;42.662;23.260;2023-07-28T10:11:55;5.30;;;2.83;;
20008;SDS011;10165;42.662;23.260;2023-07-28T10:14:35;5.20;;;2.80;;
20008;SDS011;10165;42.662;23.260;2023-07-28T10:17:06;4.57;;;2.93;;
20008;SDS011;10165;42.662;23.260;2023-07-28T10:19:42;8.57;;;3.30;;
20008;SDS011;10165;42.662;23.260;2023-07-28T10:22:10;5.97;;;2.30;;
20008;SDS011;10165;42.662;23.260;2023-07-28T10:27:32;3.40;;;2.40;;
20008;SDS011;10165;42.662;23.260;2023-07-28T10:30:07;4.20;;;2.37;;
20008;SDS011;10165;42.662;23.260;2023-07-28T10:32:39;3.30;;;2.63;;
20008;SDS011;10165;42.662;23.260;2023-07-28T10:37:45;2.20;;;1.90;;
20008;SDS011;10165;42.662;23.260;2023-07-28T10:43:02;2.30;;;2.10;;
20008;SDS011;10165;42.662;23.260;2023-07-28T10:45:30;2.67;;;1.90;;
20008;SDS011;10165;42.662;23.260;2023-07-28T10:47:59;6.03;;;2.40;;
20008;SDS011;10165;42.662;23.260;2023-07-28T10:50:27;7.60;;;1.90;;
20008;SDS011;10165;42.662;23.260;2023-07-28T10:52:54;2.30;;;2.10;;
20008;SDS011;10165;42.662;23.260;2023-07-28T10:55:23;2.10;;;1.90;;
20008;SDS011;10165;42.662;23.260;2023-07-28T10:57:51;2.17;;;1.97;;
20008;SDS011;10165;42.662;23.260;2023-07-28T11:00:20;3.87;;;2.10;;
20008;SDS011;10165;42.662;23.260;2023-07-28T11:02:49;3.17;;;2.13;;
20008;SDS011;10165;42.662;23.260;2023-07-28T11:05:25;2.40;;;1.87;;
20008;SDS011;10165;42.662;23.260;2023-07-28T11:07:54;4.17;;;2.00;;
20008;SDS011;10165;42.662;23.260;2023-07-28T11:10:22;2.30;;;2.10;;
20008;SDS011;10165;42.662;23.260;2023-07-28T11:12:51;3.57;;;2.23;;
20008;SDS011;10165;42.662;23.260;2023-07-28T11:15:18;2.87;;;2.10;;
20008;SDS011;10165;42.662;23.260;2023-07-28T11:17:46;2.53;;;1.97;;
20008;SDS011;10165;42.662;23.260;2023-07-28T11:20:21;4.00;;;2.20;;
20008;SDS011;10165;42.662;23.260;2023-07-28T11:22:52;6.33;;;2.00;;
20008;SDS011;10165;42.662;23.260;2023-07-28T11:25:21;2.20;;;2.00;;
20008;SDS011;10165;42.662;23.260;2023-07-28T11:27:49;2.00;;;1.80;;
20008;SDS011;10165;42.662;23.260;2023-07-28T11:30:16;3.37;;;1.90;;
20008;SDS011;10165;42.662;23.260;2023-07-28T11:32:48;2.10;;;1.90;;
20008;SDS011;10165;42.662;23.260;2023-07-28T11:35:17;2.23;;;1.87;;
20008;SDS011;10165;42.662;23.260;2023-07-28T11:37:45;4.03;;;2.47;;
20008;SDS011;10165;42.662;23.260;2023-07-28T11:40:14;2.73;;;1.90;;
20008;SDS011;10165;42.662;23.260;2023-07-28T11:42:46;2.80;;;2.10;;
20008;SDS011;10165;42.662;23.260;2023-07-28T11:45:16;6.73;;;2.20;;
20008;SDS011;10165;42.662;23.260;2023-07-28T11:47:55;3.53;;;2.53;;
20008;SDS011;10165;42.662;23.260;2023-07-28T11:50:26;4.07;;;2.43;;
20008;SDS011;10165;42.662;23.260;2023-07-28T11:52:54;3.20;;;2.47;;
20008;SDS011;10165;42.662;23.260;2023-07-28T11:55:22;4.63;;;2.27;;
20008;SDS011;10165;42.662;23.260;2023-07-28T11:57:51;2.80;;;2.47;;
20008;SDS011;10165;42.662;23.260;2023-07-28T12:00:18;3.13;;;2.40;;
20008;SDS011;10165;42.662;23.260;2023-07-28T12:03:05;2.27;;;2.07;;
20008;SDS011;10165;42.662;23.260;2023-07-28T12:05:32;2.50;;;2.27;;
20008;SDS011;10165;42.662;23.260;2023-07-28T12:08:16;2.13;;;2.00;;
20008;SDS011;10165;42.662;23.260;2023-07-28T12:11:03;6.97;;;2.70;;
20008;SDS011;10165;42.662;23.260;2023-07-28T12:13:33;2.33;;;2.07;;
20008;SDS011;10165;42.662;23.260;2023-07-28T12:15:59;2.60;;;2.40;;
20008;SDS011;10165;42.662;23.260;2023-07-28T12:18:30;5.33;;;2.50;;
20008;SDS011;10165;42.662;23.260;2023-07-28T12:21:00;3.40;;;2.60;;
20008;SDS011;10165;42.662;23.260;2023-07-28T12:23:27;3.97;;;2.30;;
20008;SDS011;10165;42.662;23.260;2023-07-28T12:25:57;3.63;;;2.40;;
20008;SDS011;10165;42.662;23.260;2023-07-28T12:28:25;3.60;;;2.50;;
20008;SDS011;10165;42.662;23.260;2023-07-28T12:30:52;2.50;;;2.30;;
20008;SDS011;10165;42.662;23.260;2023-07-28T12:33:22;4.00;;;2.70;;
20008;SDS011;10165;42.662;23.260;2023-07-28T12:35:49;4.20;;;2.60;;
20008;SDS011;10165;42.662;23.260;2023-07-28T12:38:18;3.43;;;2.50;;
20008;SDS011;10165;42.662;23.260;2023-07-28T12:40:48;4.60;;;1.80;;
20008;SDS011;10165;42.662;23.260;2023-07-28T12:43:17;3.00;;;2.70;;
20008;SDS011;10165;42.662;23.260;2023-07-28T12:45:47;2.40;;;2.15;;
20008;SDS011;10165;42.662;23.260;2023-07-28T12:48:17;5.85;;;2.33;;
20008;SDS011;10165;42.662;23.260;2023-07-28T12:50:46;2.30;;;2.10;;
20008;SDS011;10165;42.662;23.260;2023-07-28T12:53:13;2.40;;;2.00;;
20008;SDS011;10165;42.662;23.260;2023-07-28T12:55:47;2.95;;;2.55;;
20008;SDS011;10165;42.662;23.260;2023-07-28T12:58:16;4.28;;;2.17;;
20008;SDS011;10165;42.662;23.260;2023-07-28T13:00:46;3.80;;;2.58;;
20008;SDS011;10165;42.662;23.260;2023-07-28T13:03:16;3.40;;;2.40;;
20008;SDS011;10165;42.662;23.260;2023-07-28T13:05:43;2.47;;;2.13;;
20008;SDS011;10165;42.662;23.260;2023-07-28T13:08:10;2.90;;;2.50;;
20008;SDS011;10165;42.662;23.260;2023-07-28T13:10:37;2.40;;;2.20;;
20008;SDS011;10165;42.662;23.260;2023-07-28T13:13:07;3.50;;;2.38;;
20008;SDS011;10165;42.662;23.260;2023-07-28T13:15:36;3.00;;;2.08;;
20008;SDS011;10165;42.662;23.260;2023-07-28T13:18:03;2.17;;;1.98;;
20008;SDS011;10165;42.662;23.260;2023-07-28T13:20:30;2.30;;;1.95;;
20008;SDS011;10165;42.662;23.260;2023-07-28T13:22:57;2.33;;;2.13;;
20008;SDS011;10165;42.662;23.260;2023-07-28T13:25:24;2.47;;;2.20;;
20008;SDS011;10165;42.662;23.260;2023-07-28T13:27:50;3.13;;;2.00;;
20008;SDS011;10165;42.662;23.260;2023-07-28T13:30:17;3.38;;;2.60;;
20008;SDS011;10165;42.662;23.260;2023-07-28T13:32:44;2.40;;;2.20;;
20008;SDS011;10165;42.662;23.260;2023-07-28T13:35:11;3.10;;;2.10;;
20008;SDS011;10165;42.662;23.260;2023-07-28T13:37:38;2.72;;;2.35;;
20008;SDS011;10165;42.662;23.260;2023-07-28T13:40:04;2.72;;;2.20;;
20008;SDS011;10165;42.662;23.260;2023-07-28T13:42:35;2.33;;;2.13;;
20008;SDS011;10165;42.662;23.260;2023-07-28T13:45:02;2.55;;;2.35;;
20008;SDS011;10165;42.662;23.260;2023-07-28T13:47:29;4.78;;;2.10;;
20008;SDS011;10165;42.662;23.260;2023-07-28T13:49:56;3.53;;;2.25;;
20008;SDS011;10165;42.662;23.260;2023-07-28T13:52:23;2.75;;;2.50;;
20008;SDS011;10165;42.662;23.260;2023-07-28T13:54:49;2.83;;;2.50;;
20008;SDS011;10165;42.662;23.260;2023-07-28T13:57:19;2.35;;;2.15;;
20008;SDS011;10165;42.662;23.260;2023-07-28T13:59:46;2.60;;;2.40;;
20008;SDS011;10165;42.662;23.260;2023-07-28T14:02:12;2.90;;;2.20;;
20008;SDS011;10165;42.662;23.260;2023-07-28T14:04:39;2.20;;;2.00;;
20008;SDS011;10165;42.662;23.260;2023-07-28T14:07:07;2.97;;;2.03;;
20008;SDS011;10165;42.662;23.260;2023-07-28T14:09:34;2.90;;;2.17;;
20008;SDS011;10165;42.662;23.260;2023-07-28T14:12:02;4.85;;;2.53;;
20008;SDS011;10165;42.662;23.260;2023-07-28T14:14:30;4.38;;;2.50;;
20008;SDS011;10165;42.662;23.260;2023-07-28T14:16:57;3.25;;;2.70;;
20008;SDS011;10165;42.662;23.260;2023-07-28T14:19:24;3.08;;;2.38;;
20008;SDS011;10165;42.662;23.260;2023-07-28T14:21:51;4.25;;;2.17;;
20008;SDS011;10165;42.662;23.260;2023-07-28T14:24:18;2.65;;;2.45;;
20008;SDS011;10165;42.662;23.260;2023-07-28T14:26:45;2.60;;;1.92;;
20008;SDS011;10165;42.662;23.260;2023-07-28T14:29:11;4.07;;;2.35;;
20008;SDS011;10165;42.662;23.260;2023-07-28T14:31:38;3.63;;;2.70;;
20008;SDS011;10165;42.662;23.260;2023-07-28T14:34:05;2.95;;;2.20;;
20008;SDS011;10165;42.662;23.260;2023-07-28T14:36:32;2.50;;;2.30;;
20008;SDS011;10165;42.662;23.260;2023-07-28T14:39:02;4.07;;;2.50;;
20008;SDS011;10165;42.662;23.260;2023-07-28T14:41:29;2.28;;;2.08;;
20008;SDS011;10165;42.662;23.260;2023-07-28T14:43:56;2.90;;;2.25;;
20008;SDS011;10165;42.662;23.260;2023-07-28T14:46:23;2.33;;;2.08;;
20008;SDS011;10165;42.662;23.260;2023-07-28T14:48:52;4.78;;;2.20;;
20008;SDS011;10165;42.662;23.260;2023-07-28T14:51:19;3.10;;;2.00;;